Terminal Aerodrome Forecast
Issued by NWS

Home | Current Version | Previous Version | Text Only | Print | Product List | Glossary On
Versions: 1 2 3 4 5 6 7 8 9 10 11 12 13 14 15 16 17 18 19 20 21 22
872
FTUS43 KILX 310100 AAB
TAFCMI
TAF AMD
KCMI 310100Z 3101/3124 VRB05KT P6SM VCTS SCT060CB BKN100
      TEMPO 3101/3102 27015G25KT 1SM TSRA BKN060CB
     FM310200 VRB03KT P6SM BKN200
     FM311800 15007KT P6SM VCTS SCT050CB BKN100=

USA.gov is the U.S. government's official web portal to all federal, state and local government web resources and services.